sensor_id;sensor_type;location;lat;lon;timestamp;P1;durP1;ratioP1;P2;durP2;ratioP2
18857;SDS011;9558;50.178;8.370;2022-08-20T00:00:11;4.47;;;2.70;;
18857;SDS011;9558;50.178;8.370;2022-08-20T00:02:41;4.05;;;2.70;;
18857;SDS011;9558;50.178;8.370;2022-08-20T00:05:11;4.03;;;2.40;;
18857;SDS011;9558;50.178;8.370;2022-08-20T00:07:39;3.35;;;2.63;;
18857;SDS011;9558;50.178;8.370;2022-08-20T00:12:34;4.15;;;2.80;;
18857;SDS011;9558;50.178;8.370;2022-08-20T00:15:02;5.20;;;2.97;;
18857;SDS011;9558;50.178;8.370;2022-08-20T00:17:30;3.15;;;2.35;;
18857;SDS011;9558;50.178;8.370;2022-08-20T00:19:59;6.00;;;2.70;;
18857;SDS011;9558;50.178;8.370;2022-08-20T00:22:27;4.57;;;2.50;;
18857;SDS011;9558;50.178;8.370;2022-08-20T00:24:53;3.42;;;2.53;;
18857;SDS011;9558;50.178;8.370;2022-08-20T00:27:20;3.35;;;2.60;;
18857;SDS011;9558;50.178;8.370;2022-08-20T00:29:46;3.33;;;2.63;;
18857;SDS011;9558;50.178;8.370;2022-08-20T00:32:13;5.43;;;2.53;;
18857;SDS011;9558;50.178;8.370;2022-08-20T00:34:39;3.63;;;2.58;;
18857;SDS011;9558;50.178;8.370;2022-08-20T00:37:06;3.80;;;2.90;;
18857;SDS011;9558;50.178;8.370;2022-08-20T00:39:34;4.43;;;2.40;;
18857;SDS011;9558;50.178;8.370;2022-08-20T00:42:01;3.83;;;2.53;;
18857;SDS011;9558;50.178;8.370;2022-08-20T00:44:28;3.90;;;2.22;;
18857;SDS011;9558;50.178;8.370;2022-08-20T00:46:55;3.45;;;2.58;;
18857;SDS011;9558;50.178;8.370;2022-08-20T00:49:22;3.53;;;2.50;;
18857;SDS011;9558;50.178;8.370;2022-08-20T00:51:51;5.20;;;2.30;;
18857;SDS011;9558;50.178;8.370;2022-08-20T00:54:24;6.30;;;2.60;;
18857;SDS011;9558;50.178;8.370;2022-08-20T00:56:56;7.38;;;2.58;;
18857;SDS011;9558;50.178;8.370;2022-08-20T00:59:28;3.13;;;2.53;;
18857;SDS011;9558;50.178;8.370;2022-08-20T01:01:57;3.67;;;2.53;;
18857;SDS011;9558;50.178;8.370;2022-08-20T01:04:25;5.63;;;2.53;;
18857;SDS011;9558;50.178;8.370;2022-08-20T01:06:53;2.90;;;2.60;;
18857;SDS011;9558;50.178;8.370;2022-08-20T01:09:20;4.57;;;2.80;;
18857;SDS011;9558;50.178;8.370;2022-08-20T01:11:47;3.92;;;3.10;;
18857;SDS011;9558;50.178;8.370;2022-08-20T01:14:15;4.78;;;3.22;;
18857;SDS011;9558;50.178;8.370;2022-08-20T01:16:54;5.82;;;3.05;;
18857;SDS011;9558;50.178;8.370;2022-08-20T01:19:24;6.63;;;3.58;;
18857;SDS011;9558;50.178;8.370;2022-08-20T01:21:54;5.22;;;4.18;;
18857;SDS011;9558;50.178;8.370;2022-08-20T01:24:23;5.90;;;4.18;;
18857;SDS011;9558;50.178;8.370;2022-08-20T01:26:58;6.65;;;4.07;;
18857;SDS011;9558;50.178;8.370;2022-08-20T01:29:28;4.57;;;3.50;;
18857;SDS011;9558;50.178;8.370;2022-08-20T01:31:59;6.25;;;4.30;;
18857;SDS011;9558;50.178;8.370;2022-08-20T01:34:26;5.07;;;3.53;;
18857;SDS011;9558;50.178;8.370;2022-08-20T01:36:54;4.35;;;3.35;;
18857;SDS011;9558;50.178;8.370;2022-08-20T01:39:25;4.75;;;3.70;;
18857;SDS011;9558;50.178;8.370;2022-08-20T01:42:04;5.80;;;3.92;;
18857;SDS011;9558;50.178;8.370;2022-08-20T01:44:34;5.25;;;3.83;;
18857;SDS011;9558;50.178;8.370;2022-08-20T01:47:12;7.95;;;4.55;;
18857;SDS011;9558;50.178;8.370;2022-08-20T01:49:41;5.93;;;4.53;;
18857;SDS011;9558;50.178;8.370;2022-08-20T01:52:16;4.28;;;3.28;;
18857;SDS011;9558;50.178;8.370;2022-08-20T01:54:49;4.38;;;3.80;;
18857;SDS011;9558;50.178;8.370;2022-08-20T01:57:18;6.20;;;3.95;;
18857;SDS011;9558;50.178;8.370;2022-08-20T01:59:46;3.67;;;2.95;;
18857;SDS011;9558;50.178;8.370;2022-08-20T02:02:15;4.13;;;3.28;;
18857;SDS011;9558;50.178;8.370;2022-08-20T02:04:41;3.60;;;3.20;;
18857;SDS011;9558;50.178;8.370;2022-08-20T02:07:11;4.30;;;3.53;;
18857;SDS011;9558;50.178;8.370;2022-08-20T02:09:40;5.00;;;3.55;;
18857;SDS011;9558;50.178;8.370;2022-08-20T02:12:08;6.32;;;3.67;;
18857;SDS011;9558;50.178;8.370;2022-08-20T02:14:40;6.10;;;3.90;;
18857;SDS011;9558;50.178;8.370;2022-08-20T02:17:08;5.35;;;3.53;;
18857;SDS011;9558;50.178;8.370;2022-08-20T02:19:36;6.03;;;3.70;;
18857;SDS011;9558;50.178;8.370;2022-08-20T02:22:08;4.15;;;3.45;;
18857;SDS011;9558;50.178;8.370;2022-08-20T02:24:41;4.38;;;3.92;;
18857;SDS011;9558;50.178;8.370;2022-08-20T02:29:34;6.97;;;3.78;;
18857;SDS011;9558;50.178;8.370;2022-08-20T02:32:03;6.50;;;3.28;;
18857;SDS011;9558;50.178;8.370;2022-08-20T02:34:30;3.50;;;3.20;;
18857;SDS011;9558;50.178;8.370;2022-08-20T02:36:58;4.70;;;3.45;;
18857;SDS011;9558;50.178;8.370;2022-08-20T02:41:52;8.80;;;3.33;;
18857;SDS011;9558;50.178;8.370;2022-08-20T02:46:45;5.05;;;3.53;;
18857;SDS011;9558;50.178;8.370;2022-08-20T02:49:17;4.20;;;2.90;;
18857;SDS011;9558;50.178;8.370;2022-08-20T02:51:44;4.40;;;3.30;;
18857;SDS011;9558;50.178;8.370;2022-08-20T02:54:11;7.13;;;3.65;;
18857;SDS011;9558;50.178;8.370;2022-08-20T02:56:39;4.10;;;3.60;;
18857;SDS011;9558;50.178;8.370;2022-08-20T02:59:06;3.97;;;3.42;;
18857;SDS011;9558;50.178;8.370;2022-08-20T03:01:33;5.18;;;4.15;;
18857;SDS011;9558;50.178;8.370;2022-08-20T03:04:00;5.70;;;4.22;;
18857;SDS011;9558;50.178;8.370;2022-08-20T03:06:29;4.72;;;3.45;;
18857;SDS011;9558;50.178;8.370;2022-08-20T03:08:55;4.68;;;3.97;;
18857;SDS011;9558;50.178;8.370;2022-08-20T03:11:22;6.97;;;4.15;;
18857;SDS011;9558;50.178;8.370;2022-08-20T03:13:49;4.38;;;3.50;;
18857;SDS011;9558;50.178;8.370;2022-08-20T03:16:16;4.43;;;3.50;;
18857;SDS011;9558;50.178;8.370;2022-08-20T03:18:44;4.38;;;3.60;;
18857;SDS011;9558;50.178;8.370;2022-08-20T03:21:11;6.20;;;3.42;;
18857;SDS011;9558;50.178;8.370;2022-08-20T03:23:40;4.28;;;3.50;;
18857;SDS011;9558;50.178;8.370;2022-08-20T03:26:08;5.22;;;3.75;;
18857;SDS011;9558;50.178;8.370;2022-08-20T03:28:36;4.78;;;3.80;;
18857;SDS011;9558;50.178;8.370;2022-08-20T03:31:04;5.78;;;3.90;;
18857;SDS011;9558;50.178;8.370;2022-08-20T03:33:31;6.00;;;3.53;;
18857;SDS011;9558;50.178;8.370;2022-08-20T03:35:58;4.13;;;3.15;;
18857;SDS011;9558;50.178;8.370;2022-08-20T03:38:25;5.82;;;3.58;;
18857;SDS011;9558;50.178;8.370;2022-08-20T03:43:19;6.07;;;4.10;;
18857;SDS011;9558;50.178;8.370;2022-08-20T03:45:46;4.38;;;3.17;;
18857;SDS011;9558;50.178;8.370;2022-08-20T03:48:15;6.00;;;3.95;;
18857;SDS011;9558;50.178;8.370;2022-08-20T03:50:44;5.43;;;3.95;;
18857;SDS011;9558;50.178;8.370;2022-08-20T03:53:12;6.18;;;4.20;;
18857;SDS011;9558;50.178;8.370;2022-08-20T03:55:40;5.20;;;3.53;;
18857;SDS011;9558;50.178;8.370;2022-08-20T03:58:11;4.00;;;3.60;;
18857;SDS011;9558;50.178;8.370;2022-08-20T04:00:40;5.07;;;4.43;;
18857;SDS011;9558;50.178;8.370;2022-08-20T04:03:08;5.88;;;3.80;;
18857;SDS011;9558;50.178;8.370;2022-08-20T04:05:36;4.07;;;3.38;;
18857;SDS011;9558;50.178;8.370;2022-08-20T04:08:05;6.10;;;4.07;;
18857;SDS011;9558;50.178;8.370;2022-08-20T04:10:33;4.78;;;3.85;;
18857;SDS011;9558;50.178;8.370;2022-08-20T04:13:01;5.82;;;4.00;;
18857;SDS011;9558;50.178;8.370;2022-08-20T04:15:30;5.47;;;4.00;;
18857;SDS011;9558;50.178;8.370;2022-08-20T04:17:57;6.03;;;4.40;;
18857;SDS011;9558;50.178;8.370;2022-08-20T04:20:24;6.05;;;4.80;;
18857;SDS011;9558;50.178;8.370;2022-08-20T04:22:53;5.20;;;4.32;;
18857;SDS011;9558;50.178;8.370;2022-08-20T04:25:21;6.45;;;4.32;;
18857;SDS011;9558;50.178;8.370;2022-08-20T04:27:48;6.13;;;5.10;;
18857;SDS011;9558;50.178;8.370;2022-08-20T04:30:16;7.53;;;5.25;;
18857;SDS011;9558;50.178;8.370;2022-08-20T04:32:46;7.20;;;5.43;;
18857;SDS011;9558;50.178;8.370;2022-08-20T04:35:14;8.02;;;5.82;;
18857;SDS011;9558;50.178;8.370;2022-08-20T04:37:42;7.32;;;5.50;;
18857;SDS011;9558;50.178;8.370;2022-08-20T04:40:11;7.30;;;5.57;;
18857;SDS011;9558;50.178;8.370;2022-08-20T04:42:57;7.68;;;5.38;;
18857;SDS011;9558;50.178;8.370;2022-08-20T04:45:24;9.30;;;6.00;;
18857;SDS011;9558;50.178;8.370;2022-08-20T04:47:52;7.07;;;5.30;;
18857;SDS011;9558;50.178;8.370;2022-08-20T04:50:19;8.52;;;5.65;;
18857;SDS011;9558;50.178;8.370;2022-08-20T04:52:47;8.15;;;5.53;;
18857;SDS011;9558;50.178;8.370;2022-08-20T04:55:14;8.57;;;6.13;;
18857;SDS011;9558;50.178;8.370;2022-08-20T04:57:43;8.70;;;6.38;;
18857;SDS011;9558;50.178;8.370;2022-08-20T05:02:40;9.82;;;5.90;;
18857;SDS011;9558;50.178;8.370;2022-08-20T05:07:37;7.80;;;5.93;;
18857;SDS011;9558;50.178;8.370;2022-08-20T05:10:06;8.10;;;6.03;;
18857;SDS011;9558;50.178;8.370;2022-08-20T05:12:34;8.95;;;6.63;;
18857;SDS011;9558;50.178;8.370;2022-08-20T05:15:00;7.28;;;5.72;;
18857;SDS011;9558;50.178;8.370;2022-08-20T05:17:28;6.43;;;5.30;;
18857;SDS011;9558;50.178;8.370;2022-08-20T05:19:54;6.97;;;5.60;;
18857;SDS011;9558;50.178;8.370;2022-08-20T05:22:24;7.80;;;5.35;;
18857;SDS011;9558;50.178;8.370;2022-08-20T05:24:51;6.68;;;5.15;;
18857;SDS011;9558;50.178;8.370;2022-08-20T05:27:17;7.05;;;5.40;;
18857;SDS011;9558;50.178;8.370;2022-08-20T05:29:44;8.27;;;6.10;;
18857;SDS011;9558;50.178;8.370;2022-08-20T05:32:11;8.02;;;5.28;;
18857;SDS011;9558;50.178;8.370;2022-08-20T05:34:37;7.10;;;5.15;;
18857;SDS011;9558;50.178;8.370;2022-08-20T05:37:04;6.85;;;5.50;;
18857;SDS011;9558;50.178;8.370;2022-08-20T05:39:32;6.50;;;5.47;;
18857;SDS011;9558;50.178;8.370;2022-08-20T05:41:59;7.28;;;5.75;;
18857;SDS011;9558;50.178;8.370;2022-08-20T05:44:26;8.10;;;6.00;;
18857;SDS011;9558;50.178;8.370;2022-08-20T05:46:52;6.93;;;5.53;;
18857;SDS011;9558;50.178;8.370;2022-08-20T05:49:20;7.28;;;6.07;;
18857;SDS011;9558;50.178;8.370;2022-08-20T05:51:47;6.25;;;5.30;;
18857;SDS011;9558;50.178;8.370;2022-08-20T05:54:15;9.60;;;5.88;;
18857;SDS011;9558;50.178;8.370;2022-08-20T05:56:42;8.05;;;5.35;;
18857;SDS011;9558;50.178;8.370;2022-08-20T05:59:09;10.68;;;6.57;;
18857;SDS011;9558;50.178;8.370;2022-08-20T06:01:37;7.15;;;5.80;;
18857;SDS011;9558;50.178;8.370;2022-08-20T06:04:04;8.38;;;6.32;;
18857;SDS011;9558;50.178;8.370;2022-08-20T06:06:48;8.27;;;6.43;;
18857;SDS011;9558;50.178;8.370;2022-08-20T06:09:16;7.78;;;5.60;;
18857;SDS011;9558;50.178;8.370;2022-08-20T06:11:45;7.13;;;5.95;;
18857;SDS011;9558;50.178;8.370;2022-08-20T06:14:12;6.55;;;5.47;;
18857;SDS011;9558;50.178;8.370;2022-08-20T06:16:40;7.32;;;6.03;;
18857;SDS011;9558;50.178;8.370;2022-08-20T06:19:07;7.53;;;6.28;;
18857;SDS011;9558;50.178;8.370;2022-08-20T06:21:34;9.00;;;6.80;;
18857;SDS011;9558;50.178;8.370;2022-08-20T06:24:01;9.20;;;6.75;;
18857;SDS011;9558;50.178;8.370;2022-08-20T06:26:28;9.98;;;7.45;;
18857;SDS011;9558;50.178;8.370;2022-08-20T06:28:56;9.23;;;6.93;;
18857;SDS011;9558;50.178;8.370;2022-08-20T06:31:24;8.65;;;6.63;;
18857;SDS011;9558;50.178;8.370;2022-08-20T06:33:51;11.35;;;8.15;;
18857;SDS011;9558;50.178;8.370;2022-08-20T06:36:17;9.10;;;7.80;;
18857;SDS011;9558;50.178;8.370;2022-08-20T06:41:11;9.75;;;7.35;;
18857;SDS011;9558;50.178;8.370;2022-08-20T06:43:38;9.93;;;8.35;;
18857;SDS011;9558;50.178;8.370;2022-08-20T06:46:06;10.82;;;8.10;;
18857;SDS011;9558;50.178;8.370;2022-08-20T06:48:33;9.88;;;7.75;;
18857;SDS011;9558;50.178;8.370;2022-08-20T06:51:00;9.15;;;7.32;;
18857;SDS011;9558;50.178;8.370;2022-08-20T06:53:28;9.48;;;6.90;;
18857;SDS011;9558;50.178;8.370;2022-08-20T06:55:55;9.13;;;6.55;;
18857;SDS011;9558;50.178;8.370;2022-08-20T06:58:23;7.35;;;6.53;;
18857;SDS011;9558;50.178;8.370;2022-08-20T07:00:50;10.60;;;7.80;;
18857;SDS011;9558;50.178;8.370;2022-08-20T07:05:46;8.18;;;6.15;;
18857;SDS011;9558;50.178;8.370;2022-08-20T07:08:14;8.27;;;6.65;;
18857;SDS011;9558;50.178;8.370;2022-08-20T07:10:45;6.40;;;5.80;;
18857;SDS011;9558;50.178;8.370;2022-08-20T07:13:11;7.80;;;6.15;;
18857;SDS011;9558;50.178;8.370;2022-08-20T07:15:40;6.28;;;5.47;;
18857;SDS011;9558;50.178;8.370;2022-08-20T07:18:07;5.57;;;5.07;;
18857;SDS011;9558;50.178;8.370;2022-08-20T07:20:37;6.35;;;5.10;;
18857;SDS011;9558;50.178;8.370;2022-08-20T07:23:09;4.47;;;3.80;;
18857;SDS011;9558;50.178;8.370;2022-08-20T07:25:37;6.85;;;3.78;;
18857;SDS011;9558;50.178;8.370;2022-08-20T07:28:05;4.50;;;4.10;;
18857;SDS011;9558;50.178;8.370;2022-08-20T07:30:33;3.58;;;3.25;;
18857;SDS011;9558;50.178;8.370;2022-08-20T07:33:19;3.65;;;3.35;;
18857;SDS011;9558;50.178;8.370;2022-08-20T07:35:47;3.97;;;3.42;;
18857;SDS011;9558;50.178;8.370;2022-08-20T07:38:14;4.15;;;3.00;;
18857;SDS011;9558;50.178;8.370;2022-08-20T07:40:48;2.78;;;2.58;;
18857;SDS011;9558;50.178;8.370;2022-08-20T07:43:15;3.70;;;3.40;;
18857;SDS011;9558;50.178;8.370;2022-08-20T07:48:09;3.22;;;2.92;;
18857;SDS011;9558;50.178;8.370;2022-08-20T07:50:37;4.10;;;3.00;;
18857;SDS011;9558;50.178;8.370;2022-08-20T07:53:06;4.28;;;3.05;;
18857;SDS011;9558;50.178;8.370;2022-08-20T07:55:34;3.17;;;2.88;;
18857;SDS011;9558;50.178;8.370;2022-08-20T07:58:05;3.08;;;2.78;;
18857;SDS011;9558;50.178;8.370;2022-08-20T08:00:34;3.25;;;2.95;;
18857;SDS011;9558;50.178;8.370;2022-08-20T08:05:28;4.10;;;2.40;;
18857;SDS011;9558;50.178;8.370;2022-08-20T08:07:55;3.13;;;2.50;;
18857;SDS011;9558;50.178;8.370;2022-08-20T08:10:24;5.10;;;2.80;;
18857;SDS011;9558;50.178;8.370;2022-08-20T08:12:52;2.55;;;2.30;;
18857;SDS011;9558;50.178;8.370;2022-08-20T08:15:22;3.80;;;3.05;;
18857;SDS011;9558;50.178;8.370;2022-08-20T08:17:52;3.13;;;2.78;;
18857;SDS011;9558;50.178;8.370;2022-08-20T08:20:21;3.15;;;2.85;;
18857;SDS011;9558;50.178;8.370;2022-08-20T08:25:15;2.95;;;2.72;;
18857;SDS011;9558;50.178;8.370;2022-08-20T08:30:11;2.90;;;2.70;;
18857;SDS011;9558;50.178;8.370;2022-08-20T08:32:38;2.80;;;2.53;;
18857;SDS011;9558;50.178;8.370;2022-08-20T08:35:25;2.92;;;2.47;;
18857;SDS011;9558;50.178;8.370;2022-08-20T08:37:52;2.35;;;2.00;;
18857;SDS011;9558;50.178;8.370;2022-08-20T08:40:19;2.78;;;2.05;;
18857;SDS011;9558;50.178;8.370;2022-08-20T08:42:48;2.00;;;1.90;;
18857;SDS011;9558;50.178;8.370;2022-08-20T08:45:22;2.13;;;1.88;;
18857;SDS011;9558;50.178;8.370;2022-08-20T08:47:50;2.83;;;2.22;;
18857;SDS011;9558;50.178;8.370;2022-08-20T08:50:19;2.30;;;2.10;;
18857;SDS011;9558;50.178;8.370;2022-08-20T08:52:49;2.20;;;2.00;;
18857;SDS011;9558;50.178;8.370;2022-08-20T08:55:20;2.60;;;2.40;;
18857;SDS011;9558;50.178;8.370;2022-08-20T08:57:49;2.30;;;2.10;;
18857;SDS011;9558;50.178;8.370;2022-08-20T09:00:20;2.05;;;1.80;;
18857;SDS011;9558;50.178;8.370;2022-08-20T09:02:52;3.80;;;1.90;;
18857;SDS011;9558;50.178;8.370;2022-08-20T09:05:20;2.13;;;1.70;;
18857;SDS011;9558;50.178;8.370;2022-08-20T09:07:52;3.42;;;1.70;;
18857;SDS011;9558;50.178;8.370;2022-08-20T09:10:19;1.60;;;1.50;;
18857;SDS011;9558;50.178;8.370;2022-08-20T09:12:46;1.50;;;1.40;;
18857;SDS011;9558;50.178;8.370;2022-08-20T09:17:41;1.63;;;1.52;;
18857;SDS011;9558;50.178;8.370;2022-08-20T09:22:34;1.67;;;1.30;;
18857;SDS011;9558;50.178;8.370;2022-08-20T09:25:02;1.50;;;1.40;;
18857;SDS011;9558;50.178;8.370;2022-08-20T09:27:29;1.48;;;1.38;;
18857;SDS011;9558;50.178;8.370;2022-08-20T09:29:56;2.35;;;1.80;;
18857;SDS011;9558;50.178;8.370;2022-08-20T09:34:51;2.00;;;1.75;;
18857;SDS011;9558;50.178;8.370;2022-08-20T09:37:21;2.00;;;1.48;;
18857;SDS011;9558;50.178;8.370;2022-08-20T09:39:49;1.67;;;1.42;;
18857;SDS011;9558;50.178;8.370;2022-08-20T09:42:17;1.45;;;1.35;;
18857;SDS011;9558;50.178;8.370;2022-08-20T09:44:46;1.65;;;1.10;;
18857;SDS011;9558;50.178;8.370;2022-08-20T09:47:13;1.40;;;1.30;;
18857;SDS011;9558;50.178;8.370;2022-08-20T09:49:42;2.80;;;1.40;;
18857;SDS011;9558;50.178;8.370;2022-08-20T09:52:12;0.90;;;0.90;;
18857;SDS011;9558;50.178;8.370;2022-08-20T09:54:45;2.28;;;1.35;;
18857;SDS011;9558;50.178;8.370;2022-08-20T09:57:12;1.38;;;0.90;;
18857;SDS011;9558;50.178;8.370;2022-08-20T09:59:40;0.90;;;0.90;;
18857;SDS011;9558;50.178;8.370;2022-08-20T10:04:33;1.00;;;1.00;;
18857;SDS011;9558;50.178;8.370;2022-08-20T10:09:32;1.00;;;1.00;;
18857;SDS011;9558;50.178;8.370;2022-08-20T10:11:58;1.23;;;1.08;;
18857;SDS011;9558;50.178;8.370;2022-08-20T10:16:53;2.25;;;1.10;;
18857;SDS011;9558;50.178;8.370;2022-08-20T10:19:20;1.17;;;0.82;;
18857;SDS011;9558;50.178;8.370;2022-08-20T10:24:16;1.10;;;1.08;;
18857;SDS011;9558;50.178;8.370;2022-08-20T10:26:43;0.93;;;0.85;;
18857;SDS011;9558;50.178;8.370;2022-08-20T10:29:10;1.75;;;0.70;;
18857;SDS011;9558;50.178;8.370;2022-08-20T10:34:03;0.50;;;0.50;;
18857;SDS011;9558;50.178;8.370;2022-08-20T10:36:30;0.82;;;0.80;;
18857;SDS011;9558;50.178;8.370;2022-08-20T10:38:57;0.82;;;0.70;;
18857;SDS011;9558;50.178;8.370;2022-08-20T10:41:25;0.70;;;0.70;;
18857;SDS011;9558;50.178;8.370;2022-08-20T10:43:52;0.98;;;0.88;;
18857;SDS011;9558;50.178;8.370;2022-08-20T10:48:45;0.80;;;0.80;;
18857;SDS011;9558;50.178;8.370;2022-08-20T10:51:11;0.75;;;0.70;;
18857;SDS011;9558;50.178;8.370;2022-08-20T10:53:38;0.65;;;0.57;;
18857;SDS011;9558;50.178;8.370;2022-08-20T10:56:05;0.68;;;0.50;;
18857;SDS011;9558;50.178;8.370;2022-08-20T10:58:33;1.13;;;0.47;;
18857;SDS011;9558;50.178;8.370;2022-08-20T11:00:59;0.77;;;0.52;;
18857;SDS011;9558;50.178;8.370;2022-08-20T11:03:26;0.50;;;0.50;;
18857;SDS011;9558;50.178;8.370;2022-08-20T11:05:53;0.70;;;0.70;;
18857;SDS011;9558;50.178;8.370;2022-08-20T11:10:45;0.52;;;0.50;;
18857;SDS011;9558;50.178;8.370;2022-08-20T11:13:12;0.60;;;0.60;;
18857;SDS011;9558;50.178;8.370;2022-08-20T11:15:40;0.90;;;0.90;;
18857;SDS011;9558;50.178;8.370;2022-08-20T11:18:09;1.48;;;0.80;;
18857;SDS011;9558;50.178;8.370;2022-08-20T11:20:35;0.60;;;0.60;;
18857;SDS011;9558;50.178;8.370;2022-08-20T11:23:02;1.02;;;0.68;;
18857;SDS011;9558;50.178;8.370;2022-08-20T11:25:29;0.60;;;0.60;;
18857;SDS011;9558;50.178;8.370;2022-08-20T11:27:56;1.85;;;0.50;;
18857;SDS011;9558;50.178;8.370;2022-08-20T11:30:24;0.30;;;0.30;;
18857;SDS011;9558;50.178;8.370;2022-08-20T11:32:54;0.45;;;0.45;;
18857;SDS011;9558;50.178;8.370;2022-08-20T11:35:21;0.30;;;0.30;;
18857;SDS011;9558;50.178;8.370;2022-08-20T11:37:48;0.25;;;0.22;;
18857;SDS011;9558;50.178;8.370;2022-08-20T11:40:15;1.27;;;0.30;;
18857;SDS011;9558;50.178;8.370;2022-08-20T11:42:42;0.40;;;0.40;;
18857;SDS011;9558;50.178;8.370;2022-08-20T11:45:09;0.40;;;0.38;;
18857;SDS011;9558;50.178;8.370;2022-08-20T11:47:36;0.35;;;0.30;;
18857;SDS011;9558;50.178;8.370;2022-08-20T11:50:05;0.30;;;0.30;;
18857;SDS011;9558;50.178;8.370;2022-08-20T11:52:35;0.25;;;0.17;;
18857;SDS011;9558;50.178;8.370;2022-08-20T11:55:02;0.30;;;0.30;;
18857;SDS011;9558;50.178;8.370;2022-08-20T11:57:30;0.40;;;0.40;;
18857;SDS011;9558;50.178;8.370;2022-08-20T11:59:59;0.40;;;0.40;;
18857;SDS011;9558;50.178;8.370;2022-08-20T12:02:29;2.75;;;0.40;;
18857;SDS011;9558;50.178;8.370;2022-08-20T12:04:56;0.40;;;0.40;;
18857;SDS011;9558;50.178;8.370;2022-08-20T12:07:24;0.30;;;0.30;;
18857;SDS011;9558;50.178;8.370;2022-08-20T12:09:51;1.20;;;0.40;;
18857;SDS011;9558;50.178;8.370;2022-08-20T12:12:19;0.95;;;0.40;;
18857;SDS011;9558;50.178;8.370;2022-08-20T12:14:48;0.60;;;0.57;;
18857;SDS011;9558;50.178;8.370;2022-08-20T12:17:17;1.00;;;0.55;;
18857;SDS011;9558;50.178;8.370;2022-08-20T12:19:47;0.47;;;0.47;;
18857;SDS011;9558;50.178;8.370;2022-08-20T12:22:14;0.77;;;0.40;;
18857;SDS011;9558;50.178;8.370;2022-08-20T12:24:42;0.45;;;0.45;;
18857;SDS011;9558;50.178;8.370;2022-08-20T12:27:10;0.55;;;0.55;;
18857;SDS011;9558;50.178;8.370;2022-08-20T12:29:39;0.75;;;0.60;;
18857;SDS011;9558;50.178;8.370;2022-08-20T12:32:06;0.50;;;0.40;;
18857;SDS011;9558;50.178;8.370;2022-08-20T12:34:34;0.65;;;0.43;;
18857;SDS011;9558;50.178;8.370;2022-08-20T12:37:02;0.65;;;0.47;;
18857;SDS011;9558;50.178;8.370;2022-08-20T12:39:32;0.73;;;0.40;;
18857;SDS011;9558;50.178;8.370;2022-08-20T12:42:00;0.98;;;0.65;;
18857;SDS011;9558;50.178;8.370;2022-08-20T12:44:27;0.77;;;0.77;;
18857;SDS011;9558;50.178;8.370;2022-08-20T12:47:03;1.75;;;0.68;;
18857;SDS011;9558;50.178;8.370;2022-08-20T12:49:31;0.90;;;0.80;;
18857;SDS011;9558;50.178;8.370;2022-08-20T12:51:57;1.80;;;0.85;;
18857;SDS011;9558;50.178;8.370;2022-08-20T12:54:24;2.03;;;1.00;;
18857;SDS011;9558;50.178;8.370;2022-08-20T12:56:51;3.28;;;0.80;;
18857;SDS011;9558;50.178;8.370;2022-08-20T12:59:20;1.42;;;1.20;;
18857;SDS011;9558;50.178;8.370;2022-08-20T13:01:47;1.05;;;0.80;;
18857;SDS011;9558;50.178;8.370;2022-08-20T13:04:14;5.93;;;1.10;;
18857;SDS011;9558;50.178;8.370;2022-08-20T13:09:07;2.03;;;1.00;;
18857;SDS011;9558;50.178;8.370;2022-08-20T13:11:34;1.48;;;0.80;;
18857;SDS011;9558;50.178;8.370;2022-08-20T13:14:01;4.88;;;1.30;;
18857;SDS011;9558;50.178;8.370;2022-08-20T13:16:29;2.17;;;0.98;;
18857;SDS011;9558;50.178;8.370;2022-08-20T13:18:56;1.58;;;0.98;;
18857;SDS011;9558;50.178;8.370;2022-08-20T13:21:23;1.55;;;1.40;;
18857;SDS011;9558;50.178;8.370;2022-08-20T13:23:50;1.90;;;1.20;;
18857;SDS011;9558;50.178;8.370;2022-08-20T13:26:17;2.40;;;1.80;;
18857;SDS011;9558;50.178;8.370;2022-08-20T13:28:43;2.47;;;1.73;;
18857;SDS011;9558;50.178;8.370;2022-08-20T13:33:38;2.90;;;1.25;;
18857;SDS011;9558;50.178;8.370;2022-08-20T13:36:04;2.33;;;1.10;;
18857;SDS011;9558;50.178;8.370;2022-08-20T13:38:31;1.95;;;0.90;;
18857;SDS011;9558;50.178;8.370;2022-08-20T13:43:24;1.67;;;1.25;;
18857;SDS011;9558;50.178;8.370;2022-08-20T13:45:51;2.20;;;1.20;;
18857;SDS011;9558;50.178;8.370;2022-08-20T13:48:18;2.33;;;1.10;;
18857;SDS011;9558;50.178;8.370;2022-08-20T13:50:46;3.92;;;1.00;;
18857;SDS011;9558;50.178;8.370;2022-08-20T13:53:12;1.20;;;1.10;;
18857;SDS011;9558;50.178;8.370;2022-08-20T13:55:40;2.40;;;1.10;;
18857;SDS011;9558;50.178;8.370;2022-08-20T13:58:06;1.35;;;1.25;;
18857;SDS011;9558;50.178;8.370;2022-08-20T14:03:00;4.03;;;1.00;;
18857;SDS011;9558;50.178;8.370;2022-08-20T14:05:28;1.20;;;1.10;;
18857;SDS011;9558;50.178;8.370;2022-08-20T14:08:02;3.15;;;1.40;;
18857;SDS011;9558;50.178;8.370;2022-08-20T14:10:30;2.95;;;1.13;;
18857;SDS011;9558;50.178;8.370;2022-08-20T14:12:57;3.78;;;1.40;;
18857;SDS011;9558;50.178;8.370;2022-08-20T14:15:24;1.90;;;1.48;;
18857;SDS011;9558;50.178;8.370;2022-08-20T14:17:52;3.83;;;1.50;;
18857;SDS011;9558;50.178;8.370;2022-08-20T14:20:21;3.55;;;1.30;;
18857;SDS011;9558;50.178;8.370;2022-08-20T14:22:50;2.83;;;1.40;;
18857;SDS011;9558;50.178;8.370;2022-08-20T14:25:19;4.20;;;1.40;;
18857;SDS011;9558;50.178;8.370;2022-08-20T14:27:47;1.65;;;1.17;;
18857;SDS011;9558;50.178;8.370;2022-08-20T14:30:15;2.13;;;1.45;;
18857;SDS011;9558;50.178;8.370;2022-08-20T14:32:44;5.75;;;1.52;;
18857;SDS011;9558;50.178;8.370;2022-08-20T14:35:11;3.17;;;1.25;;
18857;SDS011;9558;50.178;8.370;2022-08-20T14:37:39;1.88;;;1.40;;
18857;SDS011;9558;50.178;8.370;2022-08-20T14:40:08;1.60;;;1.48;;
18857;SDS011;9558;50.178;8.370;2022-08-20T14:42:37;1.98;;;1.30;;
18857;SDS011;9558;50.178;8.370;2022-08-20T14:45:05;2.67;;;1.30;;
18857;SDS011;9558;50.178;8.370;2022-08-20T14:47:34;3.28;;;1.10;;
18857;SDS011;9558;50.178;8.370;2022-08-20T14:50:03;1.58;;;1.15;;
18857;SDS011;9558;50.178;8.370;2022-08-20T14:52:32;4.40;;;1.20;;
18857;SDS011;9558;50.178;8.370;2022-08-20T14:55:00;1.33;;;1.20;;
18857;SDS011;9558;50.178;8.370;2022-08-20T14:57:28;2.60;;;1.70;;
18857;SDS011;9558;50.178;8.370;2022-08-20T14:59:57;1.65;;;1.30;;
18857;SDS011;9558;50.178;8.370;2022-08-20T15:02:23;3.00;;;1.50;;
18857;SDS011;9558;50.178;8.370;2022-08-20T15:04:50;1.20;;;1.10;;
18857;SDS011;9558;50.178;8.370;2022-08-20T15:07:20;2.83;;;1.35;;
18857;SDS011;9558;50.178;8.370;2022-08-20T15:09:48;2.63;;;1.25;;
18857;SDS011;9558;50.178;8.370;2022-08-20T15:12:15;2.08;;;1.10;;
18857;SDS011;9558;50.178;8.370;2022-08-20T15:14:42;1.38;;;1.20;;
18857;SDS011;9558;50.178;8.370;2022-08-20T15:19:36;3.15;;;1.60;;
18857;SDS011;9558;50.178;8.370;2022-08-20T15:22:03;1.90;;;1.40;;
18857;SDS011;9558;50.178;8.370;2022-08-20T15:24:30;1.42;;;1.33;;
18857;SDS011;9558;50.178;8.370;2022-08-20T15:29:23;3.10;;;1.50;;
18857;SDS011;9558;50.178;8.370;2022-08-20T15:34:17;2.30;;;1.80;;
18857;SDS011;9558;50.178;8.370;2022-08-20T15:36:44;1.67;;;1.58;;
18857;SDS011;9558;50.178;8.370;2022-08-20T15:39:11;2.00;;;1.75;;
18857;SDS011;9558;50.178;8.370;2022-08-20T15:44:04;1.65;;;1.55;;
18857;SDS011;9558;50.178;8.370;2022-08-20T15:46:31;4.10;;;2.03;;
18857;SDS011;9558;50.178;8.370;2022-08-20T15:48:57;2.08;;;1.88;;
18857;SDS011;9558;50.178;8.370;2022-08-20T15:51:27;1.60;;;1.50;;
18857;SDS011;9558;50.178;8.370;2022-08-20T15:53:59;3.15;;;1.50;;
18857;SDS011;9558;50.178;8.370;2022-08-20T15:56:32;3.17;;;1.40;;
18857;SDS011;9558;50.178;8.370;2022-08-20T15:59:19;3.85;;;1.73;;
18857;SDS011;9558;50.178;8.370;2022-08-20T16:01:58;2.47;;;1.70;;
18857;SDS011;9558;50.178;8.370;2022-08-20T16:04:46;1.92;;;1.40;;
18857;SDS011;9558;50.178;8.370;2022-08-20T16:07:26;2.03;;;1.83;;
18857;SDS011;9558;50.178;8.370;2022-08-20T16:10:03;2.13;;;1.63;;
18857;SDS011;9558;50.178;8.370;2022-08-20T16:12:37;3.45;;;1.95;;
18857;SDS011;9558;50.178;8.370;2022-08-20T16:15:07;2.20;;;2.00;;
18857;SDS011;9558;50.178;8.370;2022-08-20T16:17:36;2.17;;;1.75;;
18857;SDS011;9558;50.178;8.370;2022-08-20T16:20:09;1.80;;;1.70;;
18857;SDS011;9558;50.178;8.370;2022-08-20T16:22:40;2.05;;;1.77;;